Ash Grove, Missouri
Current Conditions -  °F | °C
As of 2:24 AM on Friday 19 Dec 2014 (Local Time) from KSGF Reporting Station
Haze Haze  
Wind Chill: 37°   Ceiling: 500
Heat Index: 37°   Visibility: 5mi
Dew Point: 36°   Wind: 3mph
Humidity: 96%   Direction: 130°SE
Pressure: 30.21"   Gusts: NA
Location:  37.32°N, 93.59°W
Report Text: KSGF 190824Z 13003KT 5SM BR OVC005 03/02 A3021 RMK AO2 CIG 002V007 T00280022
Loading
Personal Weather Stations






























Interactive Weather Map New forecast layout! Learn more

10-Day Weather Forecast

Advertisements
Track Severe Weather on mobile